createdAt,value
2019-03-04T00:00:45.494Z,90.97
2019-03-04T00:01:45.485Z,91.70
2019-03-04T00:02:45.448Z,91.33
2019-03-04T00:03:45.441Z,91.06
2019-03-04T00:04:45.433Z,92.57
2019-03-04T00:05:45.415Z,94.13
2019-03-04T00:06:45.445Z,93.82
2019-03-04T00:07:45.394Z,94.24
2019-03-04T00:08:45.397Z,93.62
2019-03-04T00:09:45.399Z,93.20
2019-03-04T00:10:45.364Z,92.36
2019-03-04T00:11:45.355Z,92.72
2019-03-04T00:12:45.341Z,92.82
2019-03-04T00:13:45.332Z,91.99
2019-03-04T00:14:45.326Z,91.41
2019-03-04T00:15:45.343Z,92.03
2019-03-04T00:16:45.305Z,93.33
2019-03-04T00:17:45.301Z,94.06
2019-03-04T00:18:45.288Z,94.06
2019-03-04T00:19:45.279Z,93.74
2019-03-04T00:20:45.309Z,94.47
2019-03-04T00:21:45.292Z,94.57
2019-03-04T00:22:45.270Z,94.68
2019-03-04T00:23:45.245Z,94.82
2019-03-04T00:24:45.219Z,95.56
2019-03-04T00:25:45.216Z,95.03
2019-03-04T00:26:46.149Z,96.45
2019-03-04T00:27:45.200Z,97.38
2019-03-04T00:28:45.242Z,97.59
2019-03-04T00:29:45.177Z,96.55
2019-03-04T00:30:45.165Z,96.18
2019-03-04T00:31:45.152Z,96.34
2019-03-04T00:32:45.269Z,96.08
2019-03-04T00:33:45.128Z,95.97
2019-03-04T00:34:45.133Z,94.98
2019-03-04T00:35:45.119Z,95.76
2019-03-04T00:36:45.238Z,96.08
2019-03-04T00:37:45.093Z,96.08
2019-03-04T00:38:45.082Z,95.50
2019-03-04T00:39:45.097Z,94.35
2019-03-04T00:40:45.057Z,95.75
2019-03-04T00:41:45.057Z,96.89
2019-03-04T00:42:45.042Z,97.52
2019-03-04T00:43:45.056Z,97.62
2019-03-04T00:44:45.043Z,96.89
2019-03-04T00:45:45.009Z,96.58
2019-03-04T00:46:44.995Z,97.10
2019-03-04T00:47:44.985Z,97.62
2019-03-04T00:48:44.977Z,98.14
2019-03-04T00:49:44.995Z,98.87
2019-03-04T00:50:44.957Z,98.83
2019-03-04T00:51:44.952Z,98.04
2019-03-04T00:52:44.933Z,98.56
2019-03-04T00:53:44.925Z,98.46
2019-03-04T00:54:44.950Z,97.94
2019-03-04T00:55:44.904Z,97.99
2019-03-04T00:56:44.900Z,98.31
2019-03-04T00:57:44.880Z,98.10
2019-03-04T00:58:44.870Z,97.06
2019-03-04T00:59:44.890Z,97.78
2019-03-04T01:00:44.851Z,96.16
2019-03-04T01:01:44.840Z,96.00
2019-03-04T01:02:44.824Z,96.21
2019-03-04T01:03:44.827Z,96.62
2019-03-04T01:04:44.833Z,96.15
2019-03-04T01:05:44.804Z,96.15
2019-03-04T01:06:44.786Z,96.50
2019-03-04T01:07:44.783Z,96.98
2019-03-04T01:08:44.770Z,97.97
2019-03-04T01:09:44.759Z,98.69
2019-03-04T01:10:44.785Z,98.75
2019-03-04T01:11:44.734Z,98.55
2019-03-04T01:12:44.728Z,99.07
2019-03-04T01:13:44.725Z,99.17
2019-03-04T01:14:44.711Z,98.69
2019-03-04T01:15:44.742Z,97.65
2019-03-04T01:16:46.698Z,97.75
2019-03-04T01:17:44.692Z,97.86
2019-03-04T01:18:44.675Z,96.97
2019-03-04T01:19:44.656Z,96.76
2019-03-04T01:20:44.647Z,96.44
2019-03-04T01:21:44.679Z,96.66
2019-03-04T01:22:44.630Z,98.01
2019-03-04T01:23:44.624Z,98.63
2019-03-04T01:24:44.630Z,99.37
2019-03-04T01:25:44.593Z,98.95
2019-03-04T01:26:44.588Z,98.43
2019-03-04T01:27:44.589Z,98.37
2019-03-04T01:28:44.570Z,97.85
2019-03-04T01:29:44.557Z,97.95
2019-03-04T01:30:44.594Z,97.95
2019-03-04T01:31:44.534Z,97.78
2019-03-04T01:32:44.529Z,97.05
2019-03-04T01:33:44.523Z,96.64
2019-03-04T01:34:44.507Z,98.31
2019-03-04T01:35:44.642Z,98.83
2019-03-04T01:36:44.492Z,99.15
2019-03-04T01:37:44.509Z,99.99
2019-03-04T01:38:44.494Z,99.62
2019-03-04T01:39:44.459Z,99.83
2019-03-04T01:40:44.458Z,99.25
2019-03-04T01:41:44.437Z,99.46
2019-03-04T01:42:44.447Z,99.35
2019-03-04T01:43:44.419Z,99.66
2019-03-04T01:44:44.403Z,99.46
2019-03-04T01:45:44.435Z,99.35
2019-03-04T01:46:44.409Z,99.40
2019-03-04T01:47:44.382Z,99.99
2019-03-04T01:48:44.386Z,99.99
2019-03-04T01:49:44.353Z,99.99
2019-03-04T01:50:44.349Z,99.92
2019-03-04T01:51:44.358Z,99.40
2019-03-04T01:52:44.358Z,99.29
2019-03-04T01:53:44.314Z,99.40
2019-03-04T01:54:44.304Z,99.71
2019-03-04T01:55:44.296Z,99.99
2019-03-04T01:56:44.290Z,99.99
2019-03-04T01:57:44.298Z,99.99
2019-03-04T01:58:44.286Z,99.99
2019-03-04T01:59:44.262Z,99.99
2019-03-04T02:00:44.241Z,99.99
2019-03-04T02:01:44.230Z,99.99
2019-03-04T02:02:44.226Z,99.99
2019-03-04T02:03:44.222Z,99.99
2019-03-04T02:04:44.258Z,99.99
2019-03-04T02:05:44.201Z,99.99
2019-03-04T02:06:44.189Z,99.99
2019-03-04T02:07:44.173Z,99.99
2019-03-04T02:08:44.159Z,99.99
2019-03-04T02:09:44.150Z,99.99
2019-03-04T02:10:44.174Z,99.99
2019-03-04T02:11:44.142Z,99.99
2019-03-04T02:12:44.124Z,99.99
2019-03-04T02:13:44.153Z,99.99
2019-03-04T02:14:44.131Z,99.99
2019-03-04T02:15:44.094Z,99.99
2019-03-04T02:16:44.080Z,99.99
2019-03-04T02:17:44.078Z,99.99
2019-03-04T02:18:44.088Z,99.99
2019-03-04T02:19:44.050Z,99.99
2019-03-04T02:20:44.067Z,99.99
2019-03-04T02:21:44.035Z,99.99
2019-03-04T02:22:44.039Z,99.99
2019-03-04T02:23:44.013Z,99.99
2019-03-04T02:24:44.001Z,99.99
2019-03-04T02:25:44.657Z,99.99
2019-03-04T02:26:43.981Z,99.99
2019-03-04T02:27:43.973Z,99.99
2019-03-04T02:28:43.963Z,99.99
2019-03-04T02:29:43.949Z,99.99
2019-03-04T02:30:43.965Z,99.99
2019-03-04T02:31:43.932Z,99.99
2019-03-04T02:32:43.924Z,99.99
2019-03-04T02:33:43.908Z,99.99
2019-03-04T02:34:43.895Z,99.99
2019-03-04T02:35:43.926Z,99.99
2019-03-04T02:36:43.883Z,99.99
2019-03-04T02:37:43.893Z,99.99
2019-03-04T02:38:43.863Z,99.99
2019-03-04T02:39:43.861Z,99.99
2019-03-04T02:40:43.835Z,99.99
2019-03-04T02:41:43.829Z,99.99
2019-03-04T02:42:43.839Z,99.99
2019-03-04T02:43:43.848Z,99.99
2019-03-04T02:44:43.801Z,99.99
2019-03-04T02:45:43.936Z,99.99
2019-03-04T02:46:43.781Z,99.89
2019-03-04T02:47:43.767Z,99.99
2019-03-04T02:48:43.756Z,99.79
2019-03-04T02:49:43.753Z,99.68
2019-03-04T02:50:43.732Z,99.99
2019-03-04T02:51:43.760Z,98.95
2019-03-04T02:52:43.732Z,98.85
2019-03-04T02:53:43.727Z,98.79
2019-03-04T02:54:43.693Z,98.37
2019-03-04T02:55:43.688Z,97.74
2019-03-04T02:56:43.737Z,98.10
2019-03-04T02:57:43.667Z,98.72
2019-03-04T02:58:43.686Z,99.25
2019-03-04T02:59:43.648Z,99.66
2019-03-04T03:00:43.630Z,99.99
2019-03-04T03:01:43.635Z,99.88
2019-03-04T03:02:43.646Z,99.88
2019-03-04T03:03:43.614Z,99.35
2019-03-04T03:04:43.600Z,99.35
2019-03-04T03:05:43.587Z,99.15
2019-03-04T03:06:43.606Z,99.99
2019-03-04T03:07:43.608Z,99.99
2019-03-04T03:08:43.567Z,99.99
2019-03-04T03:09:43.544Z,99.83
2019-03-04T03:10:43.740Z,99.99
2019-03-04T03:11:43.765Z,99.73
2019-03-04T03:12:44.389Z,99.10
2019-03-04T03:13:43.939Z,99.25
2019-03-04T03:14:43.727Z,99.46
2019-03-04T03:15:43.736Z,99.25
2019-03-04T03:16:43.975Z,99.88
2019-03-04T03:17:43.711Z,99.77
2019-03-04T03:18:43.613Z,99.99
2019-03-04T03:19:43.696Z,99.82
2019-03-04T03:20:43.654Z,99.92
2019-03-04T03:21:43.937Z,99.71
2019-03-04T03:22:43.636Z,99.99
2019-03-04T03:23:43.631Z,99.99
2019-03-04T03:24:43.660Z,99.99
2019-03-04T03:25:43.640Z,99.99
2019-03-04T03:26:43.906Z,99.82
2019-03-04T03:27:43.614Z,99.99
2019-03-04T03:28:43.543Z,99.99
2019-03-04T03:29:43.590Z,99.99
2019-03-04T03:30:43.585Z,99.99
2019-03-04T03:31:43.760Z,99.99
2019-03-04T03:32:43.579Z,99.99
2019-03-04T03:33:43.534Z,99.99
2019-03-04T03:34:43.545Z,99.99
2019-03-04T03:35:43.537Z,99.99
2019-03-04T03:36:43.524Z,99.99
2019-03-04T03:37:43.730Z,99.99
2019-03-04T03:38:43.398Z,99.99
2019-03-04T03:39:43.301Z,99.99
2019-03-04T03:40:43.287Z,99.99
2019-03-04T03:41:43.280Z,99.99
2019-03-04T03:42:43.264Z,99.99
2019-03-04T03:43:43.325Z,99.99
2019-03-04T03:44:43.238Z,99.99
2019-03-04T03:45:43.258Z,99.99
2019-03-04T03:46:43.225Z,99.99
2019-03-04T03:47:43.301Z,99.83
2019-03-04T03:48:43.207Z,99.31
2019-03-04T03:49:43.193Z,99.10
2019-03-04T03:50:43.176Z,98.79
2019-03-04T03:51:43.240Z,98.58
2019-03-04T03:52:43.165Z,98.83
2019-03-04T03:53:43.148Z,98.83
2019-03-04T03:54:43.144Z,98.31
2019-03-04T03:55:43.129Z,98.62
2019-03-04T03:56:43.213Z,98.93
2019-03-04T03:57:43.112Z,99.15
2019-03-04T03:58:43.093Z,99.52
2019-03-04T03:59:43.091Z,99.10
2019-03-04T04:00:43.086Z,99.20
2019-03-04T04:01:43.148Z,99.31
2019-03-04T04:02:43.049Z,99.41
2019-03-04T04:03:43.061Z,99.83
2019-03-04T04:04:43.045Z,99.73
2019-03-04T04:05:43.035Z,99.10
2019-03-04T04:06:43.027Z,99.31
2019-03-04T04:07:43.115Z,99.79
2019-03-04T04:08:42.983Z,99.79
2019-03-04T04:09:42.981Z,99.26
2019-03-04T04:10:42.977Z,99.47
2019-03-04T04:11:42.973Z,99.63
2019-03-04T04:12:42.954Z,99.95
2019-03-04T04:13:43.000Z,99.84
2019-03-04T04:14:42.947Z,99.63
2019-03-04T04:15:42.911Z,99.22
2019-03-04T04:16:42.921Z,99.32
2019-03-04T04:17:42.985Z,98.90
2019-03-04T04:18:42.901Z,99.11
2019-03-04T04:19:42.898Z,98.38
2019-03-04T04:20:42.880Z,99.01
2019-03-04T04:21:42.861Z,99.01
2019-03-04T04:22:42.898Z,99.95
2019-03-04T04:23:43.651Z,99.80
2019-03-04T04:24:42.836Z,99.99
2019-03-04T04:25:42.823Z,99.48
2019-03-04T04:26:42.805Z,99.59
2019-03-04T04:27:42.888Z,99.99
2019-03-04T04:28:42.815Z,99.99
2019-03-04T04:29:42.806Z,99.99
2019-03-04T04:30:42.779Z,99.59
2019-03-04T04:31:42.761Z,99.69
2019-03-04T04:32:42.817Z,99.23
2019-03-04T04:33:42.739Z,98.55
2019-03-04T04:34:42.757Z,98.65
2019-03-04T04:35:42.727Z,98.34
2019-03-04T04:36:42.705Z,98.69
2019-03-04T04:37:42.761Z,98.65
2019-03-04T04:38:42.688Z,98.38
2019-03-04T04:39:42.675Z,98.80
2019-03-04T04:40:42.664Z,98.18
2019-03-04T04:41:42.665Z,97.97
2019-03-04T04:42:42.698Z,98.69
2019-03-04T04:43:42.645Z,98.49
2019-03-04T04:44:42.635Z,98.32
2019-03-04T04:45:42.623Z,97.91
2019-03-04T04:46:42.614Z,97.85
2019-03-04T04:47:42.665Z,98.05
2019-03-04T04:48:42.574Z,97.89
2019-03-04T04:49:42.664Z,98.10
2019-03-04T04:50:42.588Z,97.68
2019-03-04T04:51:42.564Z,98.31
2019-03-04T04:52:42.552Z,98.41
2019-03-04T04:53:42.549Z,98.98
2019-03-04T04:54:42.618Z,98.67
2019-03-04T04:55:42.535Z,98.98
2019-03-04T04:56:42.512Z,98.82
2019-03-04T04:57:42.560Z,99.19
2019-03-04T04:58:42.500Z,99.24
2019-03-04T04:59:42.471Z,98.86
2019-03-04T05:00:42.442Z,98.86
2019-03-04T05:01:42.432Z,98.24
2019-03-04T05:02:42.414Z,98.44
2019-03-04T05:03:42.436Z,98.24
2019-03-04T05:04:42.486Z,98.44
2019-03-04T05:05:42.383Z,98.91
2019-03-04T05:06:42.378Z,99.64
2019-03-04T05:07:42.400Z,99.99
2019-03-04T05:08:42.360Z,99.99
2019-03-04T05:09:42.380Z,99.99
2019-03-04T05:10:42.355Z,99.99
2019-03-04T05:11:42.316Z,99.99
2019-03-04T05:12:42.327Z,99.99
2019-03-04T05:13:42.328Z,99.99
2019-03-04T05:14:42.297Z,99.99
2019-03-04T05:15:42.289Z,99.99
2019-03-04T05:16:42.278Z,99.99
2019-03-04T05:17:42.297Z,99.99
2019-03-04T05:18:42.249Z,99.99
2019-03-04T05:19:42.271Z,99.99
2019-03-04T05:20:42.230Z,99.99
2019-03-04T05:21:42.210Z,99.95
2019-03-04T05:22:42.232Z,99.99
2019-03-04T05:23:42.193Z,99.99
2019-03-04T05:24:42.182Z,99.99
2019-03-04T05:25:42.178Z,99.99
2019-03-04T05:26:42.166Z,99.99
2019-03-04T05:27:42.151Z,99.99
2019-03-04T05:28:42.167Z,99.99
2019-03-04T05:29:42.128Z,99.99
2019-03-04T05:30:42.119Z,99.99
2019-03-04T05:31:42.110Z,99.99
2019-03-04T05:32:42.132Z,99.99
2019-03-04T05:33:42.096Z,99.99
2019-03-04T05:34:42.110Z,99.99
2019-03-04T05:35:42.068Z,99.99
2019-03-04T05:36:42.060Z,99.99
2019-03-04T05:37:42.096Z,99.99
2019-03-04T05:38:42.035Z,99.99
2019-03-04T05:39:42.033Z,99.99
2019-03-04T05:40:42.021Z,99.99
2019-03-04T05:41:42.010Z,99.99
2019-03-04T05:42:42.047Z,99.99
2019-03-04T05:43:41.997Z,99.99
2019-03-04T05:44:41.979Z,99.99
2019-03-04T05:45:41.966Z,99.99
2019-03-04T05:46:41.957Z,99.99
2019-03-04T05:47:41.974Z,99.99
2019-03-04T05:48:41.936Z,99.99
2019-03-04T05:49:41.927Z,99.99
2019-03-04T05:50:41.918Z,99.99
2019-03-04T05:51:41.904Z,99.99
2019-03-04T05:52:41.928Z,99.99
2019-03-04T05:53:41.922Z,99.99
2019-03-04T05:54:41.875Z,99.99
2019-03-04T05:55:41.871Z,99.99
2019-03-04T05:56:41.857Z,99.99
2019-03-04T05:57:41.853Z,99.99
2019-03-04T05:58:41.845Z,99.99
2019-03-04T05:59:41.858Z,99.99
2019-03-04T06:00:41.817Z,99.99
2019-03-04T06:01:41.810Z,99.99
2019-03-04T06:02:41.795Z,99.99
2019-03-04T06:03:41.781Z,99.99
2019-03-04T06:04:41.869Z,99.99
2019-03-04T06:05:41.767Z,99.99
2019-03-04T06:06:41.759Z,99.99
2019-03-04T06:07:41.773Z,99.99
2019-03-04T06:08:41.734Z,99.99
2019-03-04T06:09:41.742Z,99.99
2019-03-04T06:10:41.915Z,99.99
2019-03-04T06:11:41.701Z,99.99
2019-03-04T06:12:41.697Z,99.74
2019-03-04T06:13:41.728Z,99.74
2019-03-04T06:14:41.709Z,99.53
2019-03-04T06:15:41.667Z,99.07
2019-03-04T06:16:47.235Z,98.65
2019-03-04T06:17:42.641Z,98.65
2019-03-04T06:18:41.665Z,98.75
2019-03-04T06:19:41.631Z,98.34
2019-03-04T06:20:41.614Z,98.13
2019-03-04T06:21:41.602Z,97.71
2019-03-04T06:22:41.599Z,97.92
2019-03-04T06:23:42.148Z,97.81
2019-03-04T06:24:41.569Z,97.50
2019-03-04T06:25:41.565Z,96.73
2019-03-04T06:26:41.553Z,96.77
2019-03-04T06:27:41.539Z,96.56
2019-03-04T06:28:41.551Z,96.36
2019-03-04T06:29:41.525Z,96.98
2019-03-04T06:30:41.514Z,97.09
2019-03-04T06:31:41.508Z,97.30
2019-03-04T06:32:41.493Z,97.81
2019-03-04T06:33:41.504Z,97.56
2019-03-04T06:34:41.471Z,97.77
2019-03-04T06:35:41.462Z,97.31
2019-03-04T06:36:41.462Z,96.79
2019-03-04T06:37:41.437Z,95.81
2019-03-04T06:38:41.470Z,95.66
2019-03-04T06:39:41.418Z,95.30
2019-03-04T06:40:41.426Z,94.72
2019-03-04T06:41:41.400Z,94.47
2019-03-04T06:42:41.409Z,94.84
2019-03-04T06:43:41.409Z,94.64
2019-03-04T06:44:41.364Z,92.61
2019-03-04T06:45:41.355Z,92.05
2019-03-04T06:46:41.350Z,91.43
2019-03-04T06:47:41.706Z,90.19
2019-03-04T06:48:41.348Z,90.91
2019-03-04T06:49:41.315Z,91.08
2019-03-04T06:50:41.309Z,89.75
2019-03-04T06:51:41.296Z,88.46
2019-03-04T06:52:45.982Z,87.28
2019-03-04T06:53:41.278Z,88.01
2019-03-04T06:54:41.290Z,89.25
2019-03-04T06:55:41.254Z,89.11
2019-03-04T06:56:41.269Z,89.52
2019-03-04T06:57:41.273Z,89.87
2019-03-04T06:58:41.258Z,90.54
2019-03-04T06:59:41.225Z,90.54
2019-03-04T07:00:41.207Z,89.54
2019-03-04T07:01:41.192Z,88.46
2019-03-04T07:02:41.180Z,89.40
2019-03-04T07:03:41.206Z,89.40
2019-03-04T07:04:41.165Z,89.40
2019-03-04T07:05:41.166Z,89.15
2019-03-04T07:06:41.159Z,88.78
2019-03-04T07:07:41.145Z,89.40
2019-03-04T07:08:41.171Z,89.92
2019-03-04T07:09:42.114Z,89.40
2019-03-04T07:10:41.114Z,88.36
2019-03-04T07:11:41.093Z,88.46
2019-03-04T07:12:41.135Z,88.88
2019-03-04T07:13:41.120Z,89.56
2019-03-04T07:14:41.071Z,89.71
2019-03-04T07:15:41.060Z,89.36
2019-03-04T07:16:41.045Z,89.67
2019-03-04T07:17:41.031Z,89.46
2019-03-04T07:18:41.074Z,89.04
2019-03-04T07:19:41.008Z,89.15
2019-03-04T07:20:41.012Z,89.36
2019-03-04T07:21:40.998Z,89.31
2019-03-04T07:22:40.998Z,89.00
2019-03-04T07:23:40.996Z,89.21
2019-03-04T07:24:40.969Z,89.11
2019-03-04T07:25:40.955Z,88.48
2019-03-04T07:26:40.949Z,88.07
2019-03-04T07:27:40.957Z,87.87
2019-03-04T07:28:40.919Z,88.07
2019-03-04T07:29:40.903Z,89.52
2019-03-04T07:30:40.942Z,89.07
2019-03-04T07:31:40.886Z,88.48
2019-03-04T07:32:40.878Z,88.18
2019-03-04T07:33:40.968Z,89.11
2019-03-04T07:34:40.859Z,89.31
2019-03-04T07:35:40.843Z,87.93
2019-03-04T07:36:40.848Z,87.97
2019-03-04T07:37:40.843Z,87.76
2019-03-04T07:38:40.875Z,88.24
2019-03-04T07:39:40.811Z,87.93
2019-03-04T07:40:40.802Z,87.20
2019-03-04T07:41:40.799Z,87.99
2019-03-04T07:42:40.767Z,87.47
2019-03-04T07:43:40.786Z,85.71
2019-03-04T07:44:40.775Z,86.23
2019-03-04T07:45:40.745Z,86.96
2019-03-04T07:46:40.732Z,85.57
2019-03-04T07:47:40.722Z,86.09
2019-03-04T07:48:40.713Z,86.09
2019-03-04T07:49:40.741Z,85.11
2019-03-04T07:50:40.690Z,85.22
2019-03-04T07:51:40.686Z,85.32
2019-03-04T07:52:40.670Z,83.84
2019-03-04T07:53:46.434Z,83.53
2019-03-04T07:54:41.668Z,82.56
2019-03-04T07:55:40.641Z,80.46
2019-03-04T07:56:40.658Z,78.25
2019-03-04T07:57:40.620Z,77.56
2019-03-04T07:58:40.611Z,75.26
2019-03-04T07:59:40.607Z,72.06
2019-03-04T08:00:40.587Z,69.01
2019-03-04T08:01:40.573Z,68.77
2019-03-04T08:02:40.598Z,68.88
2019-03-04T08:03:40.556Z,67.10
2019-03-04T08:04:40.584Z,66.28
2019-03-04T08:05:40.532Z,66.55
2019-03-04T08:06:40.528Z,66.76
2019-03-04T08:07:40.519Z,66.55
2019-03-04T08:08:40.506Z,65.42
2019-03-04T08:09:40.528Z,65.42
2019-03-04T08:10:40.478Z,66.42
2019-03-04T08:11:40.471Z,64.34
2019-03-04T08:12:40.459Z,66.19
2019-03-04T08:13:40.457Z,64.31
2019-03-04T08:14:40.535Z,65.03
2019-03-04T08:15:40.434Z,64.25
2019-03-04T08:16:41.168Z,61.73
2019-03-04T08:17:40.433Z,62.18
2019-03-04T08:18:40.433Z,62.18
2019-03-04T08:19:40.393Z,61.65
2019-03-04T08:20:40.377Z,59.09
2019-03-04T08:21:40.503Z,60.90
2019-03-04T08:22:40.393Z,62.02
2019-03-04T08:23:40.346Z,62.13
2019-03-04T08:24:40.334Z,61.51
2019-03-04T08:25:40.330Z,60.49
2019-03-04T08:26:40.319Z,60.36
2019-03-04T08:27:40.342Z,60.05
2019-03-04T08:28:40.292Z,60.46
2019-03-04T08:29:40.312Z,60.60
2019-03-04T08:30:40.279Z,60.57
2019-03-04T08:31:40.261Z,59.95
2019-03-04T08:32:40.256Z,59.75
2019-03-04T08:33:40.243Z,60.77
2019-03-04T08:34:40.258Z,60.36
2019-03-04T08:35:40.254Z,60.67
2019-03-04T08:36:40.214Z,60.36
2019-03-04T08:37:40.202Z,60.26
2019-03-04T08:38:40.188Z,60.46
2019-03-04T08:39:40.184Z,59.41
2019-03-04T08:40:40.168Z,60.53
2019-03-04T08:41:40.181Z,60.44
2019-03-04T08:42:40.144Z,60.85
2019-03-04T08:43:40.138Z,60.53
2019-03-04T08:44:41.176Z,60.64
2019-03-04T08:45:40.124Z,60.13
2019-03-04T08:46:40.225Z,60.46
2019-03-04T08:47:40.095Z,61.25
2019-03-04T08:48:40.079Z,60.13
2019-03-04T08:49:40.074Z,59.52
2019-03-04T08:50:40.123Z,60.44
2019-03-04T08:51:40.049Z,61.05
2019-03-04T08:52:40.047Z,60.44
2019-03-04T08:53:40.033Z,61.05
2019-03-04T08:54:40.027Z,61.35
2019-03-04T08:55:40.019Z,61.15
2019-03-04T08:56:40.036Z,61.35
2019-03-04T08:57:40.803Z,62.48
2019-03-04T08:58:39.982Z,60.33
2019-03-04T08:59:39.971Z,61.87
2019-03-04T09:00:39.965Z,61.05
2019-03-04T09:01:39.957Z,61.35
2019-03-04T09:02:39.971Z,62.17
2019-03-04T09:03:39.933Z,60.97
2019-03-04T09:04:39.918Z,62.40
2019-03-04T09:05:39.909Z,62.95
2019-03-04T09:06:39.895Z,63.96
2019-03-04T09:07:39.992Z,64.40
2019-03-04T09:08:39.877Z,64.40
2019-03-04T09:09:39.892Z,63.41
2019-03-04T09:10:39.852Z,64.23
2019-03-04T09:11:39.844Z,64.95
2019-03-04T09:12:39.834Z,65.15
2019-03-04T09:13:39.855Z,65.59
2019-03-04T09:14:39.812Z,68.08
2019-03-04T09:15:39.805Z,67.87
2019-03-04T09:16:39.799Z,68.32
2019-03-04T09:17:39.907Z,69.65
2019-03-04T09:18:39.891Z,70.29
2019-03-04T09:19:40.672Z,70.81
2019-03-04T09:20:39.782Z,72.68
2019-03-04T09:21:39.774Z,73.74
2019-03-04T09:22:39.730Z,74.40
2019-03-04T09:23:40.630Z,76.34
2019-03-04T09:24:39.712Z,77.20
2019-03-04T09:25:39.695Z,77.55
2019-03-04T09:26:39.696Z,77.65
2019-03-04T09:27:39.668Z,78.30
2019-03-04T09:28:39.704Z,79.12
2019-03-04T09:29:39.657Z,78.40
2019-03-04T09:30:39.650Z,79.63
2019-03-04T09:31:39.649Z,79.94
2019-03-04T09:32:39.629Z,81.18
2019-03-04T09:33:39.734Z,79.12
2019-03-04T09:34:39.600Z,78.64
2019-03-04T09:35:39.596Z,81.32
2019-03-04T09:36:39.585Z,81.93
2019-03-04T09:37:39.566Z,81.21
2019-03-04T09:38:39.585Z,83.83
2019-03-04T09:39:39.547Z,83.31
2019-03-04T09:40:39.544Z,83.97
2019-03-04T09:41:39.536Z,84.99
2019-03-04T09:42:39.648Z,83.35
2019-03-04T09:43:39.612Z,83.25
2019-03-04T09:44:39.499Z,83.76
2019-03-04T09:45:39.550Z,86.54
2019-03-04T09:46:39.481Z,85.71
2019-03-04T09:47:39.464Z,86.37
2019-03-04T09:48:39.488Z,86.88
2019-03-04T09:49:39.449Z,86.21
2019-03-04T09:50:39.434Z,87.59
2019-03-04T09:51:39.417Z,86.87
2019-03-04T09:52:39.414Z,84.80
2019-03-04T09:53:39.933Z,85.52
2019-03-04T09:54:39.386Z,84.70
2019-03-04T09:55:39.379Z,86.60
2019-03-04T09:56:39.370Z,86.29
2019-03-04T09:57:39.367Z,86.49
2019-03-04T09:58:39.381Z,86.29
2019-03-04T09:59:39.334Z,87.77
2019-03-04T10:00:39.330Z,86.02
2019-03-04T10:01:39.329Z,84.36
2019-03-04T10:02:39.309Z,87.50
2019-03-04T10:03:39.346Z,88.84
2019-03-04T10:04:39.292Z,87.40
2019-03-04T10:05:39.281Z,86.26
2019-03-04T10:06:39.276Z,87.54
2019-03-04T10:07:39.262Z,88.89
2019-03-04T10:08:39.243Z,87.54
2019-03-04T10:09:39.262Z,88.89
2019-03-04T10:10:39.231Z,89.09
2019-03-04T10:11:39.243Z,88.57
2019-03-04T10:12:39.206Z,88.20
2019-03-04T10:13:39.193Z,89.34
2019-03-04T10:14:39.188Z,91.61
2019-03-04T10:15:39.172Z,92.64
2019-03-04T10:16:39.159Z,92.58
2019-03-04T10:17:39.204Z,91.03
2019-03-04T10:18:39.144Z,90.58
2019-03-04T10:19:39.131Z,91.09
2019-03-04T10:20:39.126Z,91.30
2019-03-04T10:21:39.113Z,92.17
2019-03-04T10:22:39.120Z,91.55
2019-03-04T10:23:39.090Z,93.37
2019-03-04T10:24:39.079Z,91.40
2019-03-04T10:25:39.112Z,90.26
2019-03-04T10:26:39.069Z,92.27
2019-03-04T10:27:39.053Z,91.75
2019-03-04T10:28:39.067Z,90.78
2019-03-04T10:29:39.039Z,91.24
2019-03-04T10:30:39.017Z,91.86
2019-03-04T10:31:39.008Z,92.07
2019-03-04T10:32:38.990Z,93.10
2019-03-04T10:33:39.039Z,91.96
2019-03-04T10:34:38.977Z,91.65
2019-03-04T10:35:39.012Z,92.07
2019-03-04T10:36:38.959Z,91.24
2019-03-04T10:37:38.941Z,92.79
2019-03-04T10:38:38.984Z,91.96
2019-03-04T10:39:38.943Z,90.83
2019-03-04T10:40:38.915Z,90.83
2019-03-04T10:41:38.921Z,89.54
2019-03-04T10:42:38.899Z,89.59
2019-03-04T10:43:38.910Z,89.48
2019-03-04T10:44:38.891Z,87.83
2019-03-04T10:45:38.869Z,87.79
2019-03-04T10:46:38.858Z,87.27
2019-03-04T10:47:38.840Z,86.51
2019-03-04T10:48:38.830Z,88.47
2019-03-04T10:49:38.848Z,86.51
2019-03-04T10:50:38.819Z,87.13
2019-03-04T10:51:38.805Z,86.61
2019-03-04T10:52:38.831Z,88.68
2019-03-04T10:53:38.782Z,86.71
2019-03-04T10:54:38.842Z,85.78
2019-03-04T10:55:42.294Z,85.89
2019-03-04T10:56:40.711Z,84.03
2019-03-04T10:57:38.745Z,84.41
2019-03-04T10:58:38.734Z,84.81
2019-03-04T10:59:38.754Z,85.85
2019-03-04T11:00:38.714Z,84.92
2019-03-04T11:01:38.700Z,84.30
2019-03-04T11:02:38.704Z,82.75
2019-03-04T11:03:38.673Z,83.17
2019-03-04T11:04:38.706Z,82.45
2019-03-04T11:05:38.657Z,83.27
2019-03-04T11:06:38.645Z,81.41
2019-03-04T11:07:38.636Z,82.24
2019-03-04T11:08:38.643Z,84.72
2019-03-04T11:09:38.655Z,83.68
2019-03-04T11:10:38.607Z,83.17
2019-03-04T11:11:38.600Z,82.75
2019-03-04T11:12:38.585Z,83.06
2019-03-04T11:13:38.575Z,83.27
2019-03-04T11:14:38.718Z,83.17
2019-03-04T11:15:38.604Z,84.41
2019-03-04T11:16:38.568Z,81.51
2019-03-04T11:17:38.572Z,81.21
2019-03-04T11:18:38.565Z,79.72
2019-03-04T11:19:38.548Z,79.11
2019-03-04T11:20:38.511Z,78.80
2019-03-04T11:21:38.496Z,77.62
2019-03-04T11:22:38.486Z,79.69
2019-03-04T11:23:40.134Z,80.10
2019-03-04T11:24:38.457Z,79.27
2019-03-04T11:25:38.450Z,79.27
2019-03-04T11:26:38.447Z,79.17
2019-03-04T11:27:38.432Z,79.79
2019-03-04T11:28:38.488Z,78.14
2019-03-04T11:29:38.445Z,80.10
2019-03-04T11:30:38.405Z,79.07
2019-03-04T11:31:38.396Z,79.48
2019-03-04T11:32:38.400Z,78.14
2019-03-04T11:33:38.372Z,78.97
2019-03-04T11:34:38.379Z,79.07
2019-03-04T11:35:38.346Z,77.62
2019-03-04T11:36:38.341Z,79.58
2019-03-04T11:37:38.328Z,79.38
2019-03-04T11:38:38.318Z,78.00
2019-03-04T11:39:38.334Z,78.76
2019-03-04T11:40:38.324Z,78.55
2019-03-04T11:41:38.281Z,78.45
2019-03-04T11:42:38.270Z,78.41
2019-03-04T11:43:38.261Z,77.59
2019-03-04T11:44:38.368Z,77.18
2019-03-04T11:45:38.243Z,77.38
2019-03-04T11:46:38.235Z,76.15
2019-03-04T11:47:38.218Z,76.56
2019-03-04T11:48:38.208Z,76.25
2019-03-04T11:49:38.254Z,76.83
2019-03-04T11:50:38.201Z,76.01
2019-03-04T11:51:38.186Z,74.57
2019-03-04T11:52:38.174Z,76.83
2019-03-04T11:53:38.169Z,75.73
2019-03-04T11:54:38.150Z,76.11
2019-03-04T11:55:38.164Z,75.29
2019-03-04T11:56:38.138Z,74.77
2019-03-04T11:57:38.156Z,75.18
2019-03-04T11:58:38.109Z,75.18
2019-03-04T11:59:38.097Z,75.49
2019-03-04T12:00:38.084Z,75.18
2019-03-04T12:01:38.076Z,74.57
2019-03-04T12:02:39.192Z,74.98
2019-03-04T12:03:38.123Z,75.08
2019-03-04T12:04:38.064Z,76.11
2019-03-04T12:05:38.126Z,74.36
2019-03-04T12:06:38.023Z,75.35
2019-03-04T12:07:38.030Z,75.97
2019-03-04T12:08:38.005Z,74.33
2019-03-04T12:09:37.993Z,76.49
2019-03-04T12:10:38.014Z,76.18
2019-03-04T12:11:38.553Z,75.46
2019-03-04T12:12:37.967Z,74.74
2019-03-04T12:13:37.943Z,73.54
2019-03-04T12:14:37.942Z,73.43
2019-03-04T12:15:37.960Z,73.40
2019-03-04T12:16:37.918Z,73.40
2019-03-04T12:17:37.917Z,73.02
2019-03-04T12:18:37.888Z,73.81
2019-03-04T12:19:37.898Z,73.40
2019-03-04T12:20:37.875Z,73.09
2019-03-04T12:21:37.890Z,71.55
2019-03-04T12:22:37.907Z,72.27
2019-03-04T12:23:37.845Z,69.79
2019-03-04T12:24:37.840Z,72.78
2019-03-04T12:25:37.819Z,72.06
2019-03-04T12:26:37.810Z,71.96
2019-03-04T12:27:37.833Z,71.44
2019-03-04T12:28:37.798Z,72.06
2019-03-04T12:29:37.783Z,71.55
2019-03-04T12:30:37.812Z,71.55
2019-03-04T12:31:37.764Z,71.20
2019-03-04T12:32:37.752Z,70.90
2019-03-04T12:33:37.738Z,69.87
2019-03-04T12:34:37.733Z,69.76
2019-03-04T12:35:37.774Z,71.20
2019-03-04T12:36:37.717Z,71.65
2019-03-04T12:37:37.709Z,71.20
2019-03-04T12:38:37.695Z,69.76
2019-03-04T12:39:37.686Z,69.66
2019-03-04T12:40:37.691Z,70.28
2019-03-04T12:41:37.661Z,70.59
2019-03-04T12:42:37.646Z,70.48
2019-03-04T12:43:37.639Z,70.25
2019-03-04T12:44:37.626Z,69.56
2019-03-04T12:45:37.677Z,70.07
2019-03-04T12:46:37.615Z,70.14
2019-03-04T12:47:37.592Z,70.86
2019-03-04T12:48:37.599Z,70.90
2019-03-04T12:49:37.568Z,68.94
2019-03-04T12:50:37.565Z,69.12
2019-03-04T12:51:37.575Z,68.60
2019-03-04T12:52:37.548Z,68.70